createdAt,value
2023-02-11T00:03:40.293Z,-1.56
2023-02-11T00:08:49.865Z,-1.55
2023-02-11T00:13:57.253Z,-1.55
2023-02-11T00:19:06.803Z,-1.59
2023-02-11T00:24:14.670Z,-1.65
2023-02-11T00:29:22.254Z,-1.72
2023-02-11T00:34:30.915Z,-1.81
2023-02-11T00:39:40.341Z,-1.86
2023-02-11T00:44:48.541Z,-1.95
2023-02-11T00:49:56.684Z,-2.03
2023-02-11T00:55:03.877Z,-2.09
2023-02-11T01:00:11.497Z,-2.12
2023-02-11T01:05:17.423Z,-2.13
2023-02-11T01:10:27.076Z,-2.15
2023-02-11T01:15:34.905Z,-2.18
2023-02-11T01:20:42.501Z,-2.22
2023-02-11T01:25:51.311Z,-2.30
2023-02-11T01:30:59.629Z,-2.41
2023-02-11T01:36:09.173Z,-2.49
2023-02-11T01:41:18.558Z,-2.57
2023-02-11T01:46:37.924Z,-2.58
2023-02-11T01:51:48.783Z,-2.61
2023-02-11T01:57:16.942Z,-2.63
2023-02-11T02:02:28.720Z,-2.62
2023-02-11T02:07:43.317Z,-2.65
2023-02-11T02:12:51.215Z,-2.68
2023-02-11T02:18:13.316Z,-2.69
2023-02-11T02:24:18.216Z,-2.70
2023-02-11T02:30:09.862Z,-2.72
2023-02-11T02:35:30.405Z,-2.73
2023-02-11T02:40:42.406Z,-2.74
2023-02-11T02:45:49.992Z,-2.68
2023-02-11T02:51:09.354Z,-2.65
2023-02-11T02:56:26.793Z,-2.63
2023-02-11T03:01:37.944Z,-2.64
2023-02-11T03:06:53.417Z,-2.69
2023-02-11T03:12:02.324Z,-2.68
2023-02-11T03:17:12.017Z,-2.66
2023-02-11T03:22:26.730Z,-2.61
2023-02-11T03:27:41.743Z,-2.53
2023-02-11T03:32:56.611Z,-2.47
2023-02-11T03:38:10.035Z,-2.46
2023-02-11T03:43:22.924Z,-2.46
2023-02-11T03:48:41.081Z,-2.43
2023-02-11T03:53:52.456Z,-2.38
2023-02-11T03:59:00.738Z,-2.30
2023-02-11T04:04:08.770Z,-2.25
2023-02-11T04:09:17.766Z,-2.23
2023-02-11T04:14:25.233Z,-2.23
2023-02-11T04:19:33.518Z,-2.24
2023-02-11T04:24:44.341Z,-2.24
2023-02-11T04:29:52.604Z,-2.24
2023-02-11T04:34:59.885Z,-2.23
2023-02-11T04:40:09.396Z,-2.23
2023-02-11T04:45:16.979Z,-2.23
2023-02-11T04:50:24.415Z,-2.22
2023-02-11T04:55:31.939Z,-2.24
2023-02-11T05:00:39.439Z,-2.26
2023-02-11T05:05:47.526Z,-2.24
2023-02-11T05:10:55.053Z,-2.19
2023-02-11T05:16:07.832Z,-2.15
2023-02-11T05:21:20.805Z,-2.13
2023-02-11T05:26:28.829Z,-2.10
2023-02-11T05:31:36.435Z,-2.08
2023-02-11T05:36:44.324Z,-2.04
2023-02-11T05:41:51.715Z,-2.03
2023-02-11T05:47:01.419Z,-2.00
2023-02-11T05:52:09.495Z,-1.98
2023-02-11T05:57:18.786Z,-1.95
2023-02-11T06:02:29.830Z,-1.88
2023-02-11T06:07:37.459Z,-1.80
2023-02-11T06:12:45.866Z,-1.73
2023-02-11T06:17:54.256Z,-1.72
2023-02-11T06:23:01.513Z,-1.66
2023-02-11T06:28:07.785Z,-1.61
2023-02-11T06:33:15.216Z,-1.56
2023-02-11T06:38:20.933Z,-1.55
2023-02-11T06:43:28.704Z,-1.55
2023-02-11T06:48:36.573Z,-1.55
2023-02-11T06:53:48.969Z,-1.52
2023-02-11T06:59:00.249Z,-1.45
2023-02-11T07:04:08.618Z,-1.39
2023-02-11T07:09:17.175Z,-1.35
2023-02-11T07:20:19.650Z,-1.10
2023-02-11T07:25:23.864Z,-0.98
2023-02-11T07:30:28.006Z,-0.84
2023-02-11T07:35:32.393Z,-0.73
2023-02-11T07:40:36.464Z,-0.62
2023-02-11T07:45:40.687Z,-0.51
2023-02-11T07:50:44.740Z,-0.42
2023-02-11T07:55:49.329Z,-0.34
2023-02-11T08:00:53.691Z,-0.27
2023-02-11T08:05:57.547Z,-0.19
2023-02-11T08:11:07.369Z,-0.11
2023-02-11T08:16:19.240Z,-0.03
2023-02-11T08:21:23.725Z,0.05
2023-02-11T08:26:28.988Z,0.14
2023-02-11T08:31:36.546Z,0.30
2023-02-11T08:36:44.756Z,0.45
2023-02-11T08:41:49.780Z,0.58
2023-02-11T08:46:54.014Z,0.73
2023-02-11T08:52:01.857Z,0.87
2023-02-11T08:57:06.322Z,1.03
2023-02-11T09:02:13.735Z,1.17
2023-02-11T09:07:17.962Z,1.32
2023-02-11T09:12:21.741Z,1.47
2023-02-11T09:17:25.695Z,1.64
2023-02-11T09:22:29.595Z,1.81
2023-02-11T09:27:33.665Z,1.97
2023-02-11T09:32:38.021Z,2.10
2023-02-11T09:37:42.428Z,2.20
2023-02-11T09:42:50.922Z,2.30
2023-02-11T09:47:59.418Z,2.42
2023-02-11T09:53:05.570Z,2.54
2023-02-11T09:58:14.707Z,2.61
2023-02-11T10:03:59.347Z,2.62
2023-02-11T10:09:33.680Z,2.60
2023-02-11T10:14:55.415Z,2.60
2023-02-11T10:20:17.033Z,2.62
2023-02-11T10:25:24.342Z,2.61
2023-02-11T10:30:32.590Z,2.67
2023-02-11T10:35:38.096Z,2.74
2023-02-11T10:40:43.227Z,2.79
2023-02-11T10:45:49.923Z,2.84
2023-02-11T10:51:09.862Z,2.89
2023-02-11T10:56:23.191Z,2.96
2023-02-11T11:01:41.052Z,3.01
2023-02-11T11:06:46.264Z,3.09
2023-02-11T11:11:53.420Z,3.11
2023-02-11T11:16:56.673Z,3.16
2023-02-11T11:22:01.476Z,3.21
2023-02-11T11:27:06.517Z,3.25
2023-02-11T11:32:19.484Z,3.33
2023-02-11T11:37:28.466Z,3.48
2023-02-11T11:42:34.004Z,3.60
2023-02-11T11:47:43.144Z,3.74
2023-02-11T11:52:54.198Z,3.76
2023-02-11T11:57:58.423Z,3.70
2023-02-11T12:03:39.143Z,3.64
2023-02-11T12:08:53.359Z,3.58
2023-02-11T12:14:12.703Z,3.50
2023-02-11T12:19:56.040Z,3.40
2023-02-11T12:25:13.216Z,3.32
2023-02-11T12:30:42.670Z,3.25
2023-02-11T12:35:58.289Z,3.20
2023-02-11T12:41:15.148Z,3.16
2023-02-11T12:46:34.283Z,3.13
2023-02-11T12:51:51.846Z,3.09
2023-02-11T12:56:58.677Z,3.05
2023-02-11T13:02:06.724Z,3.02
2023-02-11T13:07:16.118Z,3.00
2023-02-11T13:12:38.924Z,2.98
2023-02-11T13:17:49.624Z,2.95
2023-02-11T13:28:48.256Z,2.85
2023-02-11T13:33:56.102Z,2.78
2023-02-11T13:39:08.150Z,2.72
2023-02-11T13:44:26.852Z,2.67
2023-02-11T13:49:41.071Z,2.65
2023-02-11T13:54:51.601Z,2.64
2023-02-11T14:00:00.577Z,2.67
2023-02-11T14:05:41.475Z,2.67
2023-02-11T14:10:57.664Z,2.66
2023-02-11T14:16:10.832Z,2.65
2023-02-11T14:21:23.300Z,2.65
2023-02-11T14:26:45.217Z,2.64
2023-02-11T14:32:04.012Z,2.60
2023-02-11T14:37:28.266Z,2.57
2023-02-11T14:42:37.313Z,2.52
2023-02-11T14:47:52.714Z,2.52
2023-02-11T14:53:06.774Z,2.52
2023-02-11T14:58:20.367Z,2.50
2023-02-11T15:03:34.393Z,2.48
2023-02-11T15:08:48.814Z,2.41
2023-02-11T15:13:57.560Z,2.37
2023-02-11T15:19:08.612Z,2.27
2023-02-11T15:24:27.695Z,2.17
2023-02-11T15:29:40.894Z,2.07
2023-02-11T15:34:50.233Z,1.98
2023-02-11T15:40:09.917Z,1.87
2023-02-11T15:45:29.101Z,1.74
2023-02-11T15:50:40.841Z,1.63
2023-02-11T15:55:50.943Z,1.50
2023-02-11T16:01:00.246Z,1.43
2023-02-11T16:06:23.444Z,1.37
2023-02-11T16:11:34.382Z,1.30
2023-02-11T16:16:42.091Z,1.24
2023-02-11T16:21:50.035Z,1.23
2023-02-11T16:27:01.015Z,1.21
2023-02-11T16:32:17.636Z,1.19
2023-02-11T16:37:25.658Z,1.20
2023-02-11T16:42:33.556Z,1.18
2023-02-11T16:47:43.407Z,1.15
2023-02-11T16:52:52.612Z,1.14
2023-02-11T16:58:00.261Z,1.10
2023-02-11T17:03:11.749Z,1.12
2023-02-11T17:08:19.711Z,1.14
2023-02-11T17:13:27.393Z,1.14
2023-02-11T17:18:36.300Z,1.14
2023-02-11T17:23:45.949Z,1.18
2023-02-11T17:28:53.999Z,1.19
2023-02-11T17:34:01.318Z,1.21
2023-02-11T17:39:09.437Z,1.24
2023-02-11T17:44:16.963Z,1.24
2023-02-11T17:49:24.411Z,1.25
2023-02-11T17:54:31.880Z,1.25
2023-02-11T17:59:39.926Z,1.22
2023-02-11T18:04:47.607Z,1.21
2023-02-11T18:09:55.399Z,1.25
2023-02-11T18:15:03.663Z,1.26
2023-02-11T18:20:13.281Z,1.28
2023-02-11T18:25:21.381Z,1.29
2023-02-11T18:30:29.323Z,1.28
2023-02-11T18:35:40.506Z,1.27
2023-02-11T18:40:50.752Z,1.28
2023-02-11T18:45:58.834Z,1.28
2023-02-11T18:51:11.916Z,1.28
2023-02-11T18:56:21.627Z,1.29
2023-02-11T19:01:30.582Z,1.30
2023-02-11T19:06:39.381Z,1.31
2023-02-11T19:11:50.628Z,1.33
2023-02-11T19:17:01.957Z,1.32
2023-02-11T19:22:10.791Z,1.34
2023-02-11T19:27:18.362Z,1.37
2023-02-11T19:32:25.519Z,1.38
2023-02-11T19:37:32.804Z,1.40
2023-02-11T19:42:40.708Z,1.44
2023-02-11T19:47:48.055Z,1.46
2023-02-11T19:52:55.851Z,1.47
2023-02-11T19:58:03.083Z,1.51
2023-02-11T20:03:11.388Z,1.54
2023-02-11T20:08:19.088Z,1.55
2023-02-11T20:13:26.446Z,1.58
2023-02-11T20:18:33.884Z,1.61
2023-02-11T20:23:42.492Z,1.62
2023-02-11T20:28:51.036Z,1.66
2023-02-11T20:33:58.441Z,1.70
2023-02-11T20:39:05.102Z,1.70
2023-02-11T20:44:14.225Z,1.74
2023-02-11T20:49:24.316Z,1.78
2023-02-11T20:54:31.869Z,1.78
2023-02-11T20:59:40.792Z,1.78
2023-02-11T21:04:48.242Z,1.78
2023-02-11T21:09:55.708Z,1.77
2023-02-11T21:15:05.350Z,1.77
2023-02-11T21:20:14.718Z,1.78
2023-02-11T21:25:22.864Z,1.80
2023-02-11T21:30:30.508Z,1.80
2023-02-11T21:35:38.883Z,1.84
2023-02-11T21:40:46.542Z,1.86
2023-02-11T21:45:54.791Z,1.87
2023-02-11T21:51:05.256Z,1.89
2023-02-11T21:56:15.795Z,1.93
2023-02-11T22:01:25.773Z,1.94
2023-02-11T22:06:35.670Z,1.94
2023-02-11T22:11:43.440Z,1.96
2023-02-11T22:16:51.549Z,1.98
2023-02-11T22:21:59.276Z,1.98
2023-02-11T22:27:06.654Z,1.95
2023-02-11T22:32:14.285Z,1.95
2023-02-11T22:37:21.691Z,1.98
2023-02-11T22:42:28.959Z,1.98
2023-02-11T22:47:34.513Z,1.96
2023-02-11T22:52:42.076Z,1.93
2023-02-11T22:57:49.472Z,1.94
2023-02-11T23:02:57.382Z,1.97
2023-02-11T23:08:05.002Z,2.01
2023-02-11T23:13:12.381Z,2.02
2023-02-11T23:18:20.030Z,2.03
2023-02-11T23:23:27.808Z,2.03
2023-02-11T23:28:35.418Z,2.01
2023-02-11T23:33:44.596Z,1.96
2023-02-11T23:38:52.901Z,1.93
2023-02-11T23:44:01.424Z,1.92
2023-02-11T23:49:09.128Z,1.93
2023-02-11T23:54:17.648Z,1.98
2023-02-11T23:59:24.953Z,2.02
